Accueil
METAR-TAF:

METAR-TAF

Aéroports :

Suceava, Roumanie

latitude: 47-39N, longitude: 026-15E, altitude: 351 m

Observation

Le bulletin a été fait il y a 58 minutes, à 17:30 UTC
Vent 5 kt de sud/sud-ouest
Température 29°C
Humidité 55%
Pression 1013 hPa
Visibilité 10 km ou plus
pas de nuages en-dessous de 1500 mètres et pas de cumulonimbus.

METAR: LRSV 131730Z 20005KT CAVOK 29/19 Q1013

Heure: 21:28 (18:28 UTC)

Prévision

Le bulletin a été fait il y a 1 heure et 28 minutes, à 17:00 UTC
Prévision valable du 13 à 18 UTC au 14 à 03 UTC
Vent 4 kt de direction variable
Visibilité 10 km ou plus
pas de nuages en-dessous de 1500 mètres et pas de cumulonimbus.

TAF: LRSV 131700Z 1318/1403 VRB04KT CAVOK

Observations et prévisions météorologiques de plus de 4000 aéroports (messages METAR et TAF).

Les stations disponibles sont représentées par des disques jaunes et rouges sur la carte.

Passer la souris dessus pour voir le nom de la station.

Cliquer dessus pour voir les observations et prévisions météorologiques.

Pour changer de carte: cliquez sur les boutons verts avec une croix noire pour zoomer, sur le bouton vert avec un tiret pour effectuer un zoom arrière, ou sur les flèches vertes pour les cartes adjacentes.


METAR-TAF: